createdAt,value
2022-12-18T00:02:02.100Z,54.37
2022-12-18T00:04:30.389Z,40.73
2022-12-18T00:06:58.564Z,43.17
2022-12-18T00:09:31.575Z,48.70
2022-12-18T00:14:43.985Z,50.43
2022-12-18T00:17:12.144Z,40.07
2022-12-18T00:19:39.949Z,35.40
2022-12-18T00:22:07.905Z,37.83
2022-12-18T00:24:35.765Z,38.10
2022-12-18T00:27:03.777Z,48.47
2022-12-18T00:29:31.684Z,36.80
2022-12-18T00:31:59.636Z,46.07
2022-12-18T00:34:27.626Z,36.30
2022-12-18T00:36:55.411Z,34.77
2022-12-18T00:39:24.042Z,25.80
2022-12-18T00:42:10.228Z,32.53
2022-12-18T00:44:38.146Z,20.13
2022-12-18T00:47:06.212Z,42.33
2022-12-18T00:49:35.061Z,27.03
2022-12-18T00:52:02.982Z,22.03
2022-12-18T00:54:30.945Z,32.27
2022-12-18T00:56:59.007Z,26.50
2022-12-18T00:59:26.866Z,25.03
2022-12-18T01:01:54.942Z,37.27
2022-12-18T01:04:22.909Z,39.60
2022-12-18T01:06:51.273Z,54.70
2022-12-18T01:09:23.109Z,36.77
2022-12-18T01:11:52.774Z,22.57
2022-12-18T01:14:20.669Z,20.67
2022-12-18T01:16:48.787Z,27.43
2022-12-18T01:19:17.078Z,41.63
2022-12-18T01:21:44.876Z,39.93
2022-12-18T01:24:13.357Z,17.77
2022-12-18T01:26:41.329Z,32.13
2022-12-18T01:29:09.337Z,32.10
2022-12-18T01:31:37.621Z,32.20
2022-12-18T01:34:06.319Z,42.00
2022-12-18T01:36:38.721Z,39.87
2022-12-18T01:39:11.086Z,37.10
2022-12-18T01:41:58.531Z,36.17
2022-12-18T01:44:51.451Z,30.03
2022-12-18T01:47:45.569Z,17.77
2022-12-18T01:50:26.011Z,33.22
2022-12-18T01:53:14.992Z,29.17
2022-12-18T01:55:54.701Z,33.73
2022-12-18T01:58:30.205Z,39.43
2022-12-18T02:00:59.395Z,32.37
2022-12-18T02:03:29.085Z,35.60
2022-12-18T02:06:50.383Z,28.60
2022-12-18T02:09:28.164Z,29.63
2022-12-18T02:12:21.806Z,32.63
2022-12-18T02:15:06.808Z,36.90
2022-12-18T02:18:10.055Z,35.23
2022-12-18T02:20:55.060Z,33.93
2022-12-18T02:23:55.667Z,32.97
2022-12-18T02:26:36.513Z,28.70
2022-12-18T02:29:22.032Z,34.70
2022-12-18T02:32:01.423Z,37.50
2022-12-18T02:34:32.297Z,28.23
2022-12-18T02:37:03.399Z,30.23
2022-12-18T02:39:33.974Z,30.13
2022-12-18T02:42:09.093Z,32.70
2022-12-18T02:44:45.338Z,38.67
2022-12-18T02:47:17.223Z,40.53
2022-12-18T02:50:06.633Z,29.80
2022-12-18T02:52:48.371Z,35.70
2022-12-18T02:55:47.324Z,37.27
2022-12-18T02:58:31.805Z,33.07
2022-12-18T03:01:17.047Z,33.13
2022-12-18T03:03:52.907Z,32.93
2022-12-18T03:06:28.851Z,29.93
2022-12-18T03:09:03.295Z,41.17
2022-12-18T03:11:56.136Z,35.00
2022-12-18T03:14:27.306Z,46.30
2022-12-18T03:17:00.150Z,30.37
2022-12-18T03:19:32.571Z,36.57
2022-12-18T03:22:04.866Z,32.63
2022-12-18T03:24:43.173Z,27.77
2022-12-18T03:27:17.058Z,20.27
2022-12-18T03:29:57.640Z,30.20
2022-12-18T03:32:34.556Z,30.00
2022-12-18T03:35:06.799Z,25.83
2022-12-18T03:37:38.595Z,37.07
2022-12-18T03:40:07.743Z,27.13
2022-12-18T03:43:00.291Z,35.30
2022-12-18T03:45:35.583Z,30.33
2022-12-18T03:48:32.270Z,22.53
2022-12-18T03:51:12.909Z,21.07
2022-12-18T03:53:57.148Z,29.63
2022-12-18T03:56:33.940Z,32.30
2022-12-18T03:59:04.012Z,28.00
2022-12-18T04:01:42.824Z,30.93
2022-12-18T04:04:15.772Z,39.83
2022-12-18T04:06:46.784Z,36.10
2022-12-18T04:09:15.817Z,27.47
2022-12-18T04:11:48.531Z,39.53
2022-12-18T04:14:18.533Z,36.27
2022-12-18T04:16:50.850Z,27.53
2022-12-18T04:19:22.578Z,32.70
2022-12-18T04:21:52.230Z,27.87
2022-12-18T04:24:20.300Z,44.83
2022-12-18T04:26:59.492Z,27.60
2022-12-18T04:29:33.094Z,31.90
2022-12-18T04:32:01.139Z,30.47
2022-12-18T04:34:31.592Z,29.40
2022-12-18T04:37:00.197Z,30.57
2022-12-18T04:39:31.391Z,24.60
2022-12-18T04:42:05.167Z,26.37
2022-12-18T04:44:35.004Z,31.20
2022-12-18T04:47:02.924Z,28.50
2022-12-18T04:49:30.746Z,28.20
2022-12-18T04:51:58.800Z,23.80
2022-12-18T04:54:26.785Z,33.80
2022-12-18T04:56:54.748Z,26.57
2022-12-18T04:59:23.224Z,23.90
2022-12-18T05:01:51.675Z,28.30
2022-12-18T05:04:19.820Z,30.20
2022-12-18T05:06:47.812Z,33.30
2022-12-18T05:09:16.499Z,29.23
2022-12-18T05:11:44.597Z,25.30
2022-12-18T05:14:14.680Z,24.27
2022-12-18T05:16:42.531Z,20.73
2022-12-18T05:19:10.853Z,33.00
2022-12-18T05:21:39.306Z,32.03
2022-12-18T05:24:08.096Z,26.13
2022-12-18T05:26:38.526Z,30.27
2022-12-18T05:29:06.481Z,26.37
2022-12-18T05:31:39.038Z,24.93
2022-12-18T05:34:08.313Z,18.77
2022-12-18T05:36:36.179Z,24.13
2022-12-18T05:39:04.420Z,24.43
2022-12-18T05:41:32.551Z,27.00
2022-12-18T05:44:00.552Z,20.00
2022-12-18T05:46:28.793Z,19.73
2022-12-18T05:48:59.886Z,15.57
2022-12-18T05:51:27.820Z,25.40
2022-12-18T05:53:55.993Z,25.87
2022-12-18T05:56:24.696Z,22.50
2022-12-18T05:58:54.344Z,19.37
2022-12-18T06:01:27.698Z,17.80
2022-12-18T06:03:56.378Z,26.03
2022-12-18T06:06:26.821Z,25.63
2022-12-18T06:08:55.481Z,18.17
2022-12-18T06:11:27.461Z,16.30
2022-12-18T06:13:59.156Z,23.03
2022-12-18T06:16:28.877Z,31.83
2022-12-18T06:19:02.437Z,30.07
2022-12-18T06:21:31.791Z,24.33
2022-12-18T06:24:00.945Z,23.83
2022-12-18T06:26:28.923Z,22.20
2022-12-18T06:28:56.962Z,22.50
2022-12-18T06:31:26.216Z,27.80
2022-12-18T06:33:54.323Z,24.67
2022-12-18T06:36:22.374Z,23.70
2022-12-18T06:38:50.589Z,24.33
2022-12-18T06:41:21.228Z,25.63
2022-12-18T06:43:49.207Z,17.80
2022-12-18T06:46:17.498Z,22.27
2022-12-18T06:48:49.909Z,24.60
2022-12-18T06:51:23.420Z,27.40
2022-12-18T06:53:51.369Z,16.73
2022-12-18T06:56:19.282Z,21.23
2022-12-18T06:58:47.492Z,22.83
2022-12-18T07:01:15.687Z,22.67
2022-12-18T07:03:44.438Z,20.97
2022-12-18T07:06:17.816Z,23.90
2022-12-18T07:08:47.006Z,21.37
2022-12-18T07:11:15.460Z,27.93
2022-12-18T07:13:43.877Z,23.03
2022-12-18T07:16:22.396Z,15.93
2022-12-18T07:18:53.095Z,19.07
2022-12-18T07:21:22.677Z,23.33
2022-12-18T07:23:51.054Z,21.37
2022-12-18T07:26:21.033Z,21.60
2022-12-18T07:28:49.909Z,17.73
2022-12-18T07:31:21.604Z,18.93
2022-12-18T07:33:53.578Z,17.97
2022-12-18T07:36:21.817Z,16.17
2022-12-18T07:38:51.255Z,21.50
2022-12-18T07:41:19.917Z,21.93
2022-12-18T07:43:48.628Z,19.07
2022-12-18T07:46:17.457Z,22.50
2022-12-18T07:48:49.364Z,23.90
2022-12-18T07:51:19.403Z,19.07
2022-12-18T07:53:52.419Z,16.80
2022-12-18T07:56:30.560Z,12.97
2022-12-18T07:59:01.583Z,22.87
2022-12-18T08:01:30.010Z,27.00
2022-12-18T08:03:59.723Z,15.30
2022-12-18T08:06:27.750Z,20.33
2022-12-18T08:08:56.913Z,22.43
2022-12-18T08:11:27.285Z,24.07
2022-12-18T08:13:55.628Z,20.80
2022-12-18T08:16:24.042Z,19.80
2022-12-18T08:18:54.477Z,16.83
2022-12-18T08:21:25.165Z,18.70
2022-12-18T08:23:54.168Z,14.50
2022-12-18T08:26:22.745Z,17.63
2022-12-18T08:28:51.766Z,18.97
2022-12-18T08:31:21.082Z,19.37
2022-12-18T08:33:53.938Z,15.43
2022-12-18T08:36:25.061Z,16.10
2022-12-18T08:38:55.026Z,17.03
2022-12-18T08:41:24.241Z,17.77
2022-12-18T08:44:11.642Z,17.97
2022-12-18T08:46:42.576Z,10.00
2022-12-18T08:49:12.426Z,20.37
2022-12-18T08:51:41.342Z,9.43
2022-12-18T08:54:15.018Z,10.97
2022-12-18T08:56:43.815Z,19.13
2022-12-18T08:59:19.039Z,21.33
2022-12-18T09:01:49.647Z,20.53
2022-12-18T09:04:18.470Z,14.60
2022-12-18T09:06:46.912Z,18.77
2022-12-18T09:09:15.540Z,14.57
2022-12-18T09:11:44.087Z,14.93
2022-12-18T09:14:12.128Z,17.33
2022-12-18T09:16:40.105Z,14.67
2022-12-18T09:19:08.284Z,12.83
2022-12-18T09:21:42.170Z,10.30
2022-12-18T09:24:14.809Z,17.97
2022-12-18T09:26:43.678Z,16.20
2022-12-18T09:29:18.469Z,11.75
2022-12-18T09:31:47.755Z,16.00
2022-12-18T09:34:17.739Z,16.70
2022-12-18T09:36:46.192Z,11.40
2022-12-18T09:39:16.099Z,16.83
2022-12-18T09:41:58.832Z,10.33
2022-12-18T09:44:29.311Z,16.23
2022-12-18T09:47:21.234Z,17.00
2022-12-18T09:49:54.196Z,15.97
2022-12-18T09:52:41.116Z,14.37
2022-12-18T09:55:20.630Z,15.53
2022-12-18T09:57:57.907Z,15.47
2022-12-18T10:00:27.324Z,14.47
2022-12-18T10:03:04.525Z,15.17
2022-12-18T10:06:00.512Z,10.60
2022-12-18T10:08:55.642Z,13.60
2022-12-18T10:11:47.568Z,16.35
2022-12-18T10:14:31.715Z,10.30
2022-12-18T10:17:24.267Z,13.67
2022-12-18T10:20:03.933Z,14.30
2022-12-18T10:22:44.054Z,13.13
2022-12-18T10:28:16.273Z,11.47
2022-12-18T10:30:51.215Z,10.80
2022-12-18T10:33:25.486Z,12.70
2022-12-18T10:35:53.911Z,11.30
2022-12-18T10:38:32.877Z,12.87
2022-12-18T10:41:07.222Z,13.87
2022-12-18T10:43:37.527Z,9.23
2022-12-18T10:46:11.595Z,13.17
2022-12-18T10:48:53.938Z,8.37
2022-12-18T10:51:36.653Z,12.27
2022-12-18T10:54:20.317Z,14.07
2022-12-18T10:56:48.608Z,10.03
2022-12-18T10:59:18.706Z,11.87
2022-12-18T11:01:56.586Z,18.90
2022-12-18T11:04:29.909Z,8.47
2022-12-18T11:07:06.698Z,9.60
2022-12-18T11:09:37.740Z,13.77
2022-12-18T11:12:13.692Z,10.73
2022-12-18T11:14:49.571Z,8.23
2022-12-18T11:17:32.209Z,13.80
2022-12-18T11:20:02.485Z,10.80
2022-12-18T11:22:33.008Z,11.20
2022-12-18T11:28:00.976Z,9.97
2022-12-18T11:30:32.550Z,10.93
2022-12-18T11:33:22.690Z,12.93
2022-12-18T11:36:05.055Z,10.03
2022-12-18T11:38:37.995Z,12.53
2022-12-18T11:41:21.162Z,12.13
2022-12-18T11:43:56.794Z,10.63
2022-12-18T11:46:44.589Z,7.83
2022-12-18T11:49:35.552Z,10.30
2022-12-18T11:52:22.197Z,9.60
2022-12-18T11:54:57.798Z,12.33
2022-12-18T11:57:59.479Z,9.17
2022-12-18T12:00:27.781Z,10.87
2022-12-18T12:03:06.540Z,11.57
2022-12-18T12:06:04.663Z,12.97
2022-12-18T12:08:39.286Z,12.57
2022-12-18T12:11:12.142Z,9.80
2022-12-18T12:14:04.777Z,11.80
2022-12-18T12:16:52.069Z,15.70
2022-12-18T12:19:29.757Z,14.67
2022-12-18T12:22:14.768Z,11.17
2022-12-18T12:25:07.479Z,12.50
2022-12-18T12:27:47.999Z,9.77
2022-12-18T12:30:23.864Z,11.50
2022-12-18T12:33:04.303Z,12.77
2022-12-18T12:35:56.334Z,12.40
2022-12-18T12:38:32.040Z,12.87
2022-12-18T12:41:05.150Z,11.43
2022-12-18T12:43:50.241Z,13.30
2022-12-18T12:46:37.884Z,12.17
2022-12-18T12:49:12.447Z,13.07
2022-12-18T12:51:47.210Z,10.50
2022-12-18T12:54:27.077Z,11.25
2022-12-18T12:57:01.249Z,9.97
2022-12-18T12:59:50.848Z,12.90
2022-12-18T13:02:34.675Z,9.03
2022-12-18T13:05:19.255Z,14.60
2022-12-18T13:08:22.514Z,13.57
2022-12-18T13:11:13.004Z,11.00
2022-12-18T13:13:57.313Z,8.73
2022-12-18T13:16:28.555Z,11.23
2022-12-18T13:19:02.049Z,11.37
2022-12-18T13:21:33.576Z,12.00
2022-12-18T13:24:28.622Z,12.73
2022-12-18T13:26:57.624Z,12.95
2022-12-18T13:29:47.654Z,15.73
2022-12-18T13:32:27.587Z,13.10
2022-12-18T13:35:35.318Z,11.50
2022-12-18T13:38:21.444Z,10.50
2022-12-18T13:40:49.774Z,11.97
2022-12-18T13:43:45.608Z,14.53
2022-12-18T13:46:47.404Z,10.73
2022-12-18T13:49:15.687Z,18.67
2022-12-18T13:51:48.280Z,14.60
2022-12-18T13:54:38.637Z,16.97
2022-12-18T13:57:26.336Z,13.23
2022-12-18T13:59:54.531Z,11.33
2022-12-18T14:02:27.433Z,12.43
2022-12-18T14:04:56.396Z,12.67
2022-12-18T14:07:27.195Z,15.53
2022-12-18T14:10:25.883Z,18.13
2022-12-18T14:12:59.178Z,10.30
2022-12-18T14:15:44.721Z,14.90
2022-12-18T14:18:19.172Z,18.30
2022-12-18T14:20:53.239Z,19.85
2022-12-18T14:23:35.146Z,11.67
2022-12-18T14:26:20.535Z,18.23
2022-12-18T14:28:48.932Z,14.10
2022-12-18T14:31:24.684Z,16.93
2022-12-18T14:33:54.007Z,23.17
2022-12-18T14:36:28.938Z,17.17
2022-12-18T14:39:00.676Z,18.05
2022-12-18T14:41:29.794Z,11.63
2022-12-18T14:44:08.104Z,30.73
2022-12-18T14:46:40.464Z,13.90
2022-12-18T14:49:37.941Z,37.47
2022-12-18T14:52:20.035Z,18.63
2022-12-18T14:54:48.824Z,17.67
2022-12-18T14:57:36.992Z,16.00
2022-12-18T15:00:09.094Z,13.47
2022-12-18T15:02:40.248Z,13.67
2022-12-18T15:05:14.759Z,13.13
2022-12-18T15:07:48.670Z,14.80
2022-12-18T15:10:18.450Z,15.33
2022-12-18T15:13:08.615Z,14.07
2022-12-18T15:15:45.872Z,14.03
2022-12-18T15:18:26.847Z,13.63
2022-12-18T15:20:59.904Z,13.37
2022-12-18T15:23:30.982Z,12.23
2022-12-18T15:26:11.559Z,11.13
2022-12-18T15:28:46.543Z,11.60
2022-12-18T15:31:15.890Z,14.23
2022-12-18T15:33:54.908Z,12.77
2022-12-18T15:36:27.632Z,13.80
2022-12-18T15:39:06.512Z,14.80
2022-12-18T15:41:39.133Z,12.33
2022-12-18T15:44:29.941Z,15.90
2022-12-18T15:46:59.134Z,14.50
2022-12-18T15:49:30.434Z,10.87
2022-12-18T15:52:05.797Z,13.27
2022-12-18T15:57:26.698Z,16.77
2022-12-18T15:59:58.964Z,12.52
2022-12-18T16:02:29.175Z,14.33
2022-12-18T16:05:00.472Z,13.30
2022-12-18T16:07:30.768Z,17.43
2022-12-18T16:10:01.011Z,13.97
2022-12-18T16:12:32.963Z,13.87
2022-12-18T16:15:07.702Z,11.97
2022-12-18T16:17:37.251Z,9.00
2022-12-18T16:20:06.011Z,19.17
2022-12-18T16:22:34.684Z,13.43
2022-12-18T16:25:06.458Z,17.83
2022-12-18T16:27:37.580Z,11.30
2022-12-18T16:30:06.137Z,12.53
2022-12-18T16:32:34.093Z,11.00
2022-12-18T16:35:02.303Z,10.60
2022-12-18T16:37:30.390Z,9.00
2022-12-18T16:39:58.516Z,18.97
2022-12-18T16:42:26.554Z,14.43
2022-12-18T16:44:54.942Z,11.57
2022-12-18T16:47:23.204Z,13.43
2022-12-18T16:49:53.022Z,13.03
2022-12-18T16:52:21.362Z,15.40
2022-12-18T16:54:49.673Z,11.73
2022-12-18T16:57:21.121Z,13.80
2022-12-18T16:59:52.333Z,10.07
2022-12-18T17:02:26.003Z,13.17
2022-12-18T17:07:30.099Z,12.17
2022-12-18T17:09:58.709Z,10.97
2022-12-18T17:12:28.480Z,12.83
2022-12-18T17:14:59.830Z,9.80
2022-12-18T17:17:27.816Z,9.30
2022-12-18T17:19:55.982Z,18.97
2022-12-18T17:22:23.862Z,11.37
2022-12-18T17:24:57.347Z,16.83
2022-12-18T17:27:25.504Z,14.03
2022-12-18T17:29:54.196Z,17.37
2022-12-18T17:32:22.238Z,18.43
2022-12-18T17:34:50.068Z,11.40
2022-12-18T17:37:18.002Z,7.07
2022-12-18T17:39:45.987Z,19.73
2022-12-18T17:42:15.921Z,16.70
2022-12-18T17:44:44.989Z,14.80
2022-12-18T17:47:14.294Z,19.87
2022-12-18T17:49:42.157Z,15.87
2022-12-18T17:52:10.982Z,20.57
2022-12-18T17:54:41.841Z,11.47
2022-12-18T17:57:10.343Z,16.53
2022-12-18T17:59:38.439Z,11.80
2022-12-18T18:02:06.956Z,11.57
2022-12-18T18:04:35.499Z,11.83
2022-12-18T18:07:03.795Z,11.70
2022-12-18T18:09:32.594Z,11.70
2022-12-18T18:12:19.264Z,11.33
2022-12-18T18:14:47.489Z,12.47
2022-12-18T18:17:15.821Z,10.93
2022-12-18T18:19:49.735Z,9.77
2022-12-18T18:22:18.858Z,16.80
2022-12-18T18:24:47.023Z,18.67
2022-12-18T18:27:15.263Z,9.33
2022-12-18T18:29:43.442Z,17.97
2022-12-18T18:32:11.531Z,13.67
2022-12-18T18:34:39.611Z,13.00
2022-12-18T18:37:07.915Z,14.43
2022-12-18T18:39:36.142Z,13.40
2022-12-18T18:42:04.214Z,20.57
2022-12-18T18:44:32.401Z,11.70
2022-12-18T18:47:00.992Z,18.97
2022-12-18T18:49:31.796Z,18.80
2022-12-18T18:52:00.250Z,13.83
2022-12-18T18:54:28.376Z,20.87
2022-12-18T18:57:19.402Z,19.83
2022-12-18T18:59:44.225Z,16.77
2022-12-18T19:02:14.293Z,8.97
2022-12-18T19:04:46.260Z,14.07
2022-12-18T19:07:28.110Z,24.53
2022-12-18T19:10:03.960Z,16.30
2022-12-18T19:12:52.670Z,14.88
2022-12-18T19:15:22.896Z,14.47
2022-12-18T19:17:50.944Z,18.73
2022-12-18T19:20:19.273Z,13.87
2022-12-18T19:22:54.370Z,12.37
2022-12-18T19:25:33.856Z,22.33
2022-12-18T19:28:21.473Z,12.32
2022-12-18T19:30:50.927Z,23.57
2022-12-18T19:33:42.218Z,16.23
2022-12-18T19:36:23.491Z,12.37
2022-12-18T19:38:53.431Z,16.33
2022-12-18T19:41:22.856Z,18.03
2022-12-18T19:43:51.667Z,12.67
2022-12-18T19:46:22.638Z,19.90
2022-12-18T19:48:51.284Z,11.60
2022-12-18T19:51:24.970Z,15.50
2022-12-18T19:53:58.395Z,10.23
2022-12-18T19:56:30.774Z,25.85
2022-12-18T19:58:59.808Z,13.53
2022-12-18T20:01:29.556Z,24.37
2022-12-18T20:03:58.859Z,20.27
2022-12-18T20:06:32.321Z,11.47
2022-12-18T20:09:05.208Z,17.43
2022-12-18T20:11:36.379Z,16.83
2022-12-18T20:14:11.064Z,18.70
2022-12-18T20:16:39.242Z,10.63
2022-12-18T20:19:07.854Z,17.50
2022-12-18T20:21:37.067Z,17.37
2022-12-18T20:24:07.014Z,15.77
2022-12-18T20:26:35.650Z,17.40
2022-12-18T20:29:03.626Z,16.83
2022-12-18T20:31:31.575Z,16.20
2022-12-18T20:34:01.499Z,19.60
2022-12-18T20:36:32.869Z,16.13
2022-12-18T20:39:03.997Z,16.23
2022-12-18T20:41:38.530Z,15.60
2022-12-18T20:44:22.662Z,25.07
2022-12-18T20:46:54.272Z,22.83
2022-12-18T20:49:22.840Z,15.37
2022-12-18T20:51:53.171Z,23.70
2022-12-18T20:54:22.542Z,24.33
2022-12-18T20:56:51.320Z,23.17
2022-12-18T20:59:19.935Z,17.47
2022-12-18T21:01:49.489Z,13.70
2022-12-18T21:04:19.192Z,21.07
2022-12-18T21:06:54.200Z,24.63
2022-12-18T21:09:30.680Z,24.93
2022-12-18T21:12:29.637Z,25.20
2022-12-18T21:15:06.211Z,22.52
2022-12-18T21:17:34.659Z,24.17
2022-12-18T21:20:15.868Z,10.40
2022-12-18T21:22:46.935Z,22.73
2022-12-18T21:25:15.002Z,16.30
2022-12-18T21:27:42.904Z,20.37
2022-12-18T21:30:14.910Z,17.67
2022-12-18T21:32:51.477Z,16.00
2022-12-18T21:35:19.369Z,15.93
2022-12-18T21:37:48.853Z,19.10
2022-12-18T21:40:16.762Z,17.40
2022-12-18T21:43:03.284Z,19.07
2022-12-18T21:45:31.216Z,17.60
2022-12-18T21:47:59.244Z,17.07
2022-12-18T21:50:27.175Z,18.17
2022-12-18T21:52:55.505Z,16.27
2022-12-18T21:55:23.413Z,24.40
2022-12-18T21:57:53.486Z,18.17
2022-12-18T22:00:21.516Z,14.90
2022-12-18T22:03:17.723Z,24.60
2022-12-18T22:05:40.054Z,25.97
2022-12-18T22:08:07.994Z,25.67
2022-12-18T22:10:39.231Z,21.30
2022-12-18T22:13:15.485Z,20.87
2022-12-18T22:15:52.608Z,21.33
2022-12-18T22:18:21.412Z,28.43
2022-12-18T22:20:49.330Z,23.00
2022-12-18T22:23:17.290Z,24.57
2022-12-18T22:25:45.200Z,17.87
2022-12-18T22:28:48.232Z,20.20
2022-12-18T22:31:16.071Z,25.60
2022-12-18T22:33:44.075Z,22.40
2022-12-18T22:36:13.949Z,31.07
2022-12-18T22:38:43.964Z,25.77
2022-12-18T22:41:11.758Z,23.10
2022-12-18T22:43:39.527Z,26.10
2022-12-18T22:46:10.352Z,28.80
2022-12-18T22:48:39.075Z,23.17
2022-12-18T22:51:07.141Z,22.60
2022-12-18T22:53:35.036Z,13.80
2022-12-18T22:56:03.324Z,18.33
2022-12-18T22:58:31.556Z,22.20
2022-12-18T23:00:59.484Z,19.70
2022-12-18T23:03:27.367Z,15.03
2022-12-18T23:06:05.869Z,15.93
2022-12-18T23:08:35.002Z,19.13
2022-12-18T23:11:03.393Z,27.50
2022-12-18T23:13:32.550Z,23.33
2022-12-18T23:16:00.789Z,29.10
2022-12-18T23:18:28.901Z,22.23
2022-12-18T23:20:56.878Z,25.90
2022-12-18T23:23:25.719Z,22.30
2022-12-18T23:26:02.022Z,22.77
2022-12-18T23:28:31.120Z,19.47
2022-12-18T23:31:13.693Z,20.07
2022-12-18T23:33:44.764Z,23.07
2022-12-18T23:36:14.678Z,16.07
2022-12-18T23:38:43.085Z,16.77
2022-12-18T23:41:14.474Z,20.97
2022-12-18T23:43:42.988Z,24.70
2022-12-18T23:46:18.121Z,18.47
2022-12-18T23:48:46.620Z,27.10
2022-12-18T23:51:15.810Z,22.27
2022-12-18T23:53:44.291Z,21.97
2022-12-18T23:56:13.919Z,23.67
2022-12-18T23:58:43.331Z,26.20
